createdAt,value
2018-09-29T00:00:27.281Z,51.00
2018-09-29T00:02:58.039Z,51.10
2018-09-29T00:05:28.908Z,51.50
2018-09-29T00:07:59.484Z,50.90
2018-09-29T00:10:30.488Z,51.20
2018-09-29T00:13:01.451Z,51.00
2018-09-29T00:15:32.198Z,51.20
2018-09-29T00:18:03.068Z,51.20
2018-09-29T00:20:33.919Z,51.10
2018-09-29T00:23:04.793Z,51.10
2018-09-29T00:25:35.628Z,51.30
2018-09-29T00:28:06.410Z,51.40
2018-09-29T00:30:37.040Z,51.50
2018-09-29T00:33:07.730Z,51.40
2018-09-29T00:35:38.296Z,51.40
2018-09-29T00:38:08.966Z,51.60
2018-09-29T00:40:39.943Z,51.70
2018-09-29T00:43:10.974Z,51.70
2018-09-29T00:45:41.986Z,51.90
2018-09-29T00:48:12.789Z,51.80
2018-09-29T00:50:43.451Z,51.70
2018-09-29T00:53:14.115Z,52.00
2018-09-29T00:55:44.768Z,52.10
2018-09-29T00:58:15.423Z,51.70
2018-09-29T01:00:46.342Z,51.80
2018-09-29T01:03:17.202Z,51.80
2018-09-29T01:05:47.911Z,51.70
2018-09-29T01:08:18.909Z,51.60
2018-09-29T01:10:49.796Z,51.70
2018-09-29T01:13:20.878Z,51.80
2018-09-29T01:15:51.694Z,51.70
2018-09-29T01:18:22.360Z,51.70
2018-09-29T01:20:53.250Z,51.50
2018-09-29T01:23:24.129Z,51.50
2018-09-29T01:25:54.725Z,51.70
2018-09-29T01:28:25.679Z,51.70
2018-09-29T01:30:56.337Z,51.80
2018-09-29T01:33:43.642Z,51.70
2018-09-29T01:36:14.316Z,52.10
2018-09-29T01:38:45.279Z,52.00
2018-09-29T01:41:16.038Z,51.90
2018-09-29T01:43:46.625Z,51.90
2018-09-29T01:46:17.247Z,52.10
2018-09-29T01:48:47.813Z,52.30
2018-09-29T01:51:18.657Z,52.40
2018-09-29T01:53:49.244Z,52.30
2018-09-29T01:56:20.154Z,52.30
2018-09-29T01:58:51.204Z,52.40
2018-09-29T02:01:22.195Z,52.60
2018-09-29T02:03:52.981Z,52.60
2018-09-29T02:06:23.594Z,52.50
2018-09-29T02:08:54.270Z,52.70
2018-09-29T02:11:24.830Z,52.60
2018-09-29T02:13:55.649Z,52.60
2018-09-29T02:16:26.139Z,52.70
2018-09-29T02:18:56.668Z,52.80
2018-09-29T02:21:27.235Z,52.80
2018-09-29T02:23:58.023Z,53.00
2018-09-29T02:26:28.792Z,53.00
2018-09-29T02:28:59.546Z,53.00
2018-09-29T02:31:30.241Z,53.00
2018-09-29T02:34:01.099Z,53.10
2018-09-29T02:36:32.003Z,53.10
2018-09-29T02:39:03.404Z,53.30
2018-09-29T02:41:33.998Z,53.20
2018-09-29T02:44:04.827Z,53.40
2018-09-29T02:46:35.609Z,53.40
2018-09-29T02:49:06.226Z,53.40
2018-09-29T02:51:37.042Z,53.40
2018-09-29T02:54:07.814Z,53.60
2018-09-29T02:56:38.553Z,53.50
2018-09-29T02:59:09.702Z,53.60
2018-09-29T03:01:40.510Z,53.50
2018-09-29T03:04:11.137Z,53.50
2018-09-29T03:06:41.798Z,53.50
2018-09-29T03:09:12.383Z,53.50
2018-09-29T03:11:42.989Z,53.50
2018-09-29T03:14:13.543Z,53.60
2018-09-29T03:16:44.063Z,53.60
2018-09-29T03:19:15.034Z,53.40
2018-09-29T03:21:46.032Z,53.50
2018-09-29T03:24:16.860Z,53.40
2018-09-29T03:26:47.635Z,53.50
2018-09-29T03:29:18.435Z,53.60
2018-09-29T03:31:49.897Z,53.70
2018-09-29T03:34:20.842Z,53.60
2018-09-29T03:36:56.237Z,53.70
2018-09-29T03:39:27.450Z,53.80
2018-09-29T03:41:58.330Z,53.60
2018-09-29T03:44:28.978Z,53.80
2018-09-29T03:46:59.757Z,53.70
2018-09-29T03:49:30.330Z,54.40
2018-09-29T03:52:01.367Z,53.90
2018-09-29T03:54:32.220Z,53.80
2018-09-29T03:57:02.930Z,54.00
2018-09-29T03:59:33.479Z,53.90
2018-09-29T04:02:04.066Z,54.10
2018-09-29T04:04:34.542Z,54.10
2018-09-29T04:07:05.308Z,54.10
2018-09-29T04:09:35.920Z,54.10
2018-09-29T04:12:07.493Z,54.00
2018-09-29T04:14:38.180Z,54.00
2018-09-29T04:17:08.823Z,53.80
2018-09-29T04:19:39.894Z,54.10
2018-09-29T04:22:10.650Z,54.10
2018-09-29T04:24:41.318Z,54.20
2018-09-29T04:27:11.879Z,54.40
2018-09-29T04:29:42.678Z,54.30
2018-09-29T04:32:13.729Z,54.30
2018-09-29T04:34:44.394Z,54.20
2018-09-29T04:37:15.164Z,54.20
2018-09-29T04:39:45.987Z,54.20
2018-09-29T04:42:16.650Z,54.20
2018-09-29T04:44:47.291Z,54.30
2018-09-29T04:47:18.098Z,54.40
2018-09-29T04:49:48.884Z,54.40
2018-09-29T04:52:19.950Z,54.40
2018-09-29T04:54:50.530Z,54.40
2018-09-29T04:57:21.273Z,54.40
2018-09-29T04:59:52.275Z,54.30
2018-09-29T05:02:23.010Z,54.40
2018-09-29T05:04:53.655Z,54.50
2018-09-29T05:07:24.506Z,54.80
2018-09-29T05:09:55.184Z,54.40
2018-09-29T05:12:26.066Z,54.60
2018-09-29T05:14:56.762Z,54.60
2018-09-29T05:17:27.436Z,54.80
2018-09-29T05:19:58.406Z,54.60
2018-09-29T05:22:29.335Z,54.70
2018-09-29T05:25:00.312Z,54.70
2018-09-29T05:27:33.275Z,54.80
2018-09-29T05:30:04.632Z,54.70
2018-09-29T05:32:35.241Z,54.70
2018-09-29T05:35:06.092Z,54.80
2018-09-29T05:37:36.883Z,54.80
2018-09-29T05:40:08.028Z,54.70
2018-09-29T05:42:38.814Z,54.80
2018-09-29T05:45:09.480Z,54.90
2018-09-29T05:47:40.001Z,55.10
2018-09-29T05:50:10.841Z,55.00
2018-09-29T05:52:41.764Z,55.10
2018-09-29T05:55:12.568Z,55.10
2018-09-29T05:57:43.166Z,55.00
2018-09-29T06:00:13.946Z,55.10
2018-09-29T06:02:44.980Z,55.20
2018-09-29T06:05:16.442Z,55.10
2018-09-29T06:07:47.751Z,55.10
2018-09-29T06:10:18.640Z,55.10
2018-09-29T06:12:49.183Z,55.10
2018-09-29T06:15:21.041Z,55.40
2018-09-29T06:17:51.961Z,55.30
2018-09-29T06:20:22.812Z,55.30
2018-09-29T06:22:53.469Z,55.40
2018-09-29T06:25:24.113Z,55.50
2018-09-29T06:27:54.946Z,56.40
2018-09-29T06:30:25.999Z,56.40
2018-09-29T06:32:57.002Z,55.60
2018-09-29T06:35:27.551Z,55.60
2018-09-29T06:37:58.303Z,55.70
2018-09-29T06:40:28.881Z,55.60
2018-09-29T06:42:59.664Z,55.70
2018-09-29T06:45:30.729Z,55.60
2018-09-29T06:48:01.567Z,55.70
2018-09-29T06:50:32.343Z,55.60
2018-09-29T06:53:03.131Z,55.90
2018-09-29T06:55:34.010Z,55.60
2018-09-29T06:58:05.138Z,55.90
2018-09-29T07:00:35.928Z,55.80
2018-09-29T07:03:06.778Z,55.70
2018-09-29T07:05:37.639Z,55.80
2018-09-29T07:08:08.182Z,55.50
2018-09-29T07:10:38.914Z,55.50
2018-09-29T07:13:09.515Z,55.60
2018-09-29T07:18:25.338Z,55.20
2018-09-29T07:26:24.634Z,54.50
2018-09-29T07:28:55.365Z,54.40
2018-09-29T07:31:26.337Z,54.40
2018-09-29T07:33:57.359Z,54.30
2018-09-29T07:36:28.053Z,54.30
2018-09-29T07:38:58.691Z,54.60
2018-09-29T07:41:29.210Z,54.20
2018-09-29T07:44:00.293Z,54.20
2018-09-29T07:46:30.954Z,54.00
2018-09-29T07:49:02.008Z,54.00
2018-09-29T07:51:33.199Z,53.80
2018-09-29T07:54:03.846Z,53.80
2018-09-29T07:56:34.550Z,53.60
2018-09-29T07:59:05.343Z,53.40
2018-09-29T08:01:35.882Z,53.50
2018-09-29T08:04:06.642Z,53.20
2018-09-29T08:06:37.332Z,53.20
2018-09-29T08:09:08.276Z,52.90
2018-09-29T08:11:39.504Z,52.90
2018-09-29T08:14:10.376Z,53.00
2018-09-29T08:16:41.319Z,52.70
2018-09-29T08:19:11.968Z,52.50
2018-09-29T08:21:42.759Z,52.50
2018-09-29T08:24:13.485Z,52.10
2018-09-29T08:26:44.351Z,52.00
2018-09-29T08:29:15.038Z,51.70
2018-09-29T08:31:46.083Z,51.60
2018-09-29T08:34:17.019Z,51.50
2018-09-29T08:36:47.698Z,51.30
2018-09-29T08:39:18.520Z,50.60
2018-09-29T08:41:53.302Z,50.40
2018-09-29T08:44:23.937Z,50.00
2018-09-29T08:46:54.597Z,49.80
2018-09-29T08:49:25.715Z,49.80
2018-09-29T08:51:56.597Z,49.60
2018-09-29T08:54:27.241Z,49.30
2018-09-29T08:56:58.047Z,48.90
2018-09-29T08:59:28.563Z,48.50
2018-09-29T09:01:59.373Z,48.10
2018-09-29T09:04:30.490Z,47.70
2018-09-29T09:07:01.330Z,47.50
2018-09-29T09:09:31.958Z,47.30
2018-09-29T09:12:02.973Z,47.40
2018-09-29T09:14:35.934Z,47.50
2018-09-29T09:17:06.689Z,47.30
2018-09-29T09:19:37.243Z,47.00
2018-09-29T09:22:08.131Z,47.00
2018-09-29T09:24:38.860Z,46.70
2018-09-29T09:27:13.095Z,46.40
2018-09-29T09:29:48.779Z,46.40
2018-09-29T09:32:24.192Z,46.50
2018-09-29T09:34:56.424Z,46.30
2018-09-29T09:37:28.641Z,46.40
2018-09-29T09:40:00.313Z,46.20
2018-09-29T09:42:33.127Z,46.10
2018-09-29T09:45:03.843Z,45.80
2018-09-29T09:47:34.445Z,45.90
2018-09-29T09:50:05.366Z,45.60
2018-09-29T09:52:35.979Z,45.70
2018-09-29T09:55:06.642Z,45.70
2018-09-29T09:57:37.257Z,45.20
2018-09-29T10:00:07.889Z,45.00
2018-09-29T10:02:42.671Z,45.20
2018-09-29T10:05:13.220Z,45.00
2018-09-29T10:07:43.823Z,44.80
2018-09-29T10:10:14.608Z,44.40
2018-09-29T10:12:45.469Z,44.40
2018-09-29T10:15:16.107Z,44.10
2018-09-29T10:17:46.765Z,44.10
2018-09-29T10:20:17.527Z,43.80
2018-09-29T10:22:48.577Z,43.10
2018-09-29T10:25:19.601Z,43.30
2018-09-29T10:27:50.279Z,43.30
2018-09-29T10:30:21.293Z,43.60
2018-09-29T10:32:51.810Z,43.40
2018-09-29T10:35:22.622Z,43.40
2018-09-29T10:37:53.536Z,43.20
2018-09-29T10:40:24.195Z,43.40
2018-09-29T10:42:54.996Z,43.00
2018-09-29T10:45:25.674Z,43.40
2018-09-29T10:47:56.505Z,43.40
2018-09-29T10:50:27.290Z,43.20
2018-09-29T10:52:57.958Z,43.60
2018-09-29T10:55:28.743Z,43.50
2018-09-29T10:57:59.633Z,43.30
2018-09-29T11:00:30.471Z,43.40
2018-09-29T11:03:01.098Z,43.30
2018-09-29T11:05:32.051Z,43.40
2018-09-29T11:08:03.083Z,43.60
2018-09-29T11:10:33.933Z,43.10
2018-09-29T11:13:04.718Z,43.00
2018-09-29T11:15:35.620Z,42.90
2018-09-29T11:18:06.556Z,42.60
2018-09-29T11:20:37.253Z,43.00
2018-09-29T11:23:08.166Z,42.70
2018-09-29T11:25:38.801Z,42.10
2018-09-29T11:28:09.491Z,42.30
2018-09-29T11:30:40.587Z,42.10
2018-09-29T11:33:11.191Z,42.40
2018-09-29T11:35:41.996Z,42.90
2018-09-29T11:38:12.606Z,43.00
2018-09-29T11:40:43.319Z,42.70
2018-09-29T11:43:13.995Z,42.80
2018-09-29T11:45:44.496Z,42.80
2018-09-29T11:48:15.362Z,42.90
2018-09-29T11:50:46.147Z,42.80
2018-09-29T11:53:17.207Z,42.40
2018-09-29T11:55:47.972Z,42.30
2018-09-29T11:58:18.894Z,42.00
2018-09-29T12:00:50.142Z,41.80
2018-09-29T12:03:20.773Z,42.00
2018-09-29T12:05:51.669Z,41.70
2018-09-29T12:08:22.370Z,41.80
2018-09-29T12:10:53.399Z,41.40
2018-09-29T12:13:23.965Z,41.50
2018-09-29T12:15:54.675Z,41.60
2018-09-29T12:18:25.294Z,41.10
2018-09-29T12:20:56.197Z,41.10
2018-09-29T12:23:26.734Z,41.20
2018-09-29T12:25:57.705Z,41.20
2018-09-29T12:28:28.372Z,41.20
2018-09-29T12:30:59.180Z,41.40
2018-09-29T12:33:30.046Z,41.20
2018-09-29T12:36:00.989Z,41.30
2018-09-29T12:38:31.561Z,40.70
2018-09-29T12:41:02.222Z,40.80
2018-09-29T12:43:33.120Z,40.60
2018-09-29T12:46:03.655Z,40.40
2018-09-29T12:48:34.276Z,40.30
2018-09-29T12:51:04.884Z,40.70
2018-09-29T12:53:35.504Z,40.40
2018-09-29T12:56:06.159Z,40.30
2018-09-29T12:58:36.698Z,40.50
2018-09-29T13:01:07.503Z,40.40
2018-09-29T13:03:38.284Z,40.50
2018-09-29T13:06:08.964Z,40.00
2018-09-29T13:08:39.521Z,40.00
2018-09-29T13:11:10.140Z,39.80
2018-09-29T13:13:41.529Z,39.80
2018-09-29T13:16:12.310Z,39.80
2018-09-29T13:18:43.190Z,40.10
2018-09-29T13:21:13.933Z,39.90
2018-09-29T13:23:44.617Z,39.70
2018-09-29T13:26:15.451Z,39.70
2018-09-29T13:28:46.259Z,39.90
2018-09-29T13:31:17.230Z,40.10
2018-09-29T13:33:48.272Z,40.10
2018-09-29T13:36:19.570Z,40.00
2018-09-29T13:38:50.905Z,40.20
2018-09-29T13:41:21.594Z,40.20
2018-09-29T13:43:52.220Z,40.20
2018-09-29T13:46:23.185Z,40.10
2018-09-29T13:48:53.793Z,40.20
2018-09-29T13:51:24.362Z,40.10
2018-09-29T13:53:55.171Z,40.10
2018-09-29T13:56:25.803Z,40.40
2018-09-29T13:58:56.530Z,40.10
2018-09-29T14:01:27.173Z,40.10
2018-09-29T14:03:57.807Z,39.70
2018-09-29T14:06:28.373Z,39.70
2018-09-29T14:08:59.150Z,40.30
2018-09-29T14:11:29.997Z,39.60
2018-09-29T14:14:00.591Z,39.40
2018-09-29T14:16:31.673Z,39.10
2018-09-29T14:19:02.292Z,38.90
2018-09-29T14:21:33.241Z,38.90
2018-09-29T14:24:03.818Z,38.70
2018-09-29T14:26:34.438Z,38.80
2018-09-29T14:29:05.116Z,38.80
2018-09-29T14:31:35.914Z,38.80
2018-09-29T14:34:06.728Z,38.80
2018-09-29T14:36:37.265Z,38.80
2018-09-29T14:39:09.457Z,39.20
2018-09-29T14:41:40.579Z,39.50
2018-09-29T14:44:11.354Z,39.30
2018-09-29T14:46:42.208Z,39.20
2018-09-29T14:49:13.240Z,39.20
2018-09-29T14:51:44.026Z,39.20
2018-09-29T14:54:14.690Z,39.10
2018-09-29T14:56:45.191Z,38.80
2018-09-29T14:59:15.921Z,38.50
2018-09-29T15:01:46.670Z,38.30
2018-09-29T15:04:17.404Z,38.40
2018-09-29T15:06:48.383Z,38.40
2018-09-29T15:09:19.122Z,38.10
2018-09-29T15:11:49.576Z,38.00
2018-09-29T15:14:20.399Z,38.10
2018-09-29T15:16:50.944Z,38.20
2018-09-29T15:19:21.412Z,38.30
2018-09-29T15:21:52.153Z,38.20
2018-09-29T15:24:22.668Z,38.00
2018-09-29T15:26:53.158Z,37.90
2018-09-29T15:29:23.647Z,38.00
2018-09-29T15:31:54.376Z,38.20
2018-09-29T15:34:24.915Z,38.00
2018-09-29T15:36:55.523Z,37.70
2018-09-29T15:39:26.150Z,37.60
2018-09-29T15:41:56.658Z,38.30
2018-09-29T15:44:27.152Z,37.70
2018-09-29T15:46:57.683Z,37.60
2018-09-29T15:49:28.149Z,37.50
2018-09-29T15:51:59.712Z,37.60
2018-09-29T15:54:30.455Z,38.00
2018-09-29T15:57:01.415Z,38.60
2018-09-29T15:59:32.223Z,38.10
2018-09-29T16:02:02.975Z,38.70
2018-09-29T16:04:33.488Z,38.50
2018-09-29T16:07:04.050Z,38.40
2018-09-29T16:09:34.573Z,38.40
2018-09-29T16:12:05.454Z,38.60
2018-09-29T16:14:35.812Z,38.40
2018-09-29T16:17:06.462Z,38.50
2018-09-29T16:19:37.099Z,39.00
2018-09-29T16:22:08.837Z,39.10
2018-09-29T16:24:39.172Z,38.90
2018-09-29T16:27:09.810Z,38.80
2018-09-29T16:29:40.430Z,38.80
2018-09-29T16:32:10.955Z,38.90
2018-09-29T16:34:41.409Z,39.50
2018-09-29T16:37:12.866Z,39.30
2018-09-29T16:39:44.360Z,39.50
2018-09-29T16:42:14.952Z,39.50
2018-09-29T16:44:45.594Z,39.50
2018-09-29T16:47:15.985Z,39.80
2018-09-29T16:49:46.303Z,39.60
2018-09-29T16:52:16.638Z,40.00
2018-09-29T16:54:47.081Z,40.00
2018-09-29T16:57:17.471Z,40.10
2018-09-29T16:59:47.950Z,40.20
2018-09-29T17:02:18.497Z,40.30
2018-09-29T17:04:49.021Z,39.90
2018-09-29T17:07:19.361Z,39.90
2018-09-29T17:09:50.137Z,39.90
2018-09-29T17:12:20.484Z,40.00
2018-09-29T17:14:50.838Z,39.90
2018-09-29T17:17:21.141Z,40.00
2018-09-29T17:19:51.717Z,39.90
2018-09-29T17:22:22.120Z,40.20
2018-09-29T17:24:52.453Z,40.00
2018-09-29T17:27:22.950Z,40.00
2018-09-29T17:29:53.398Z,40.50
2018-09-29T17:32:23.968Z,40.60
2018-09-29T17:34:54.338Z,40.80
2018-09-29T17:37:24.723Z,40.90
2018-09-29T17:39:55.097Z,40.90
2018-09-29T17:42:25.541Z,40.70
2018-09-29T17:44:55.893Z,41.10
2018-09-29T17:47:26.473Z,41.50
2018-09-29T17:49:56.875Z,40.80
2018-09-29T17:52:27.289Z,40.80
2018-09-29T17:54:57.664Z,40.90
2018-09-29T17:57:28.352Z,41.00
2018-09-29T17:59:59.002Z,41.20
2018-09-29T18:02:29.401Z,41.20
2018-09-29T18:04:59.785Z,41.60
2018-09-29T18:07:30.117Z,42.00
2018-09-29T18:10:00.731Z,42.10
2018-09-29T18:12:31.492Z,42.00
2018-09-29T18:15:02.070Z,41.90
2018-09-29T18:17:32.392Z,42.30
2018-09-29T18:20:02.798Z,42.40
2018-09-29T18:22:33.212Z,42.60
2018-09-29T18:25:03.829Z,42.40
2018-09-29T18:27:34.432Z,42.60
2018-09-29T18:30:05.106Z,42.80
2018-09-29T18:32:35.469Z,43.10
2018-09-29T18:35:06.169Z,43.40
2018-09-29T18:37:36.760Z,43.50
2018-09-29T18:40:07.146Z,43.70
2018-09-29T18:42:37.493Z,43.80
2018-09-29T18:45:07.870Z,44.10
2018-09-29T18:47:38.270Z,44.20
2018-09-29T18:50:09.057Z,44.00
2018-09-29T18:52:39.422Z,44.00
2018-09-29T18:55:10.125Z,44.10
2018-09-29T18:57:40.472Z,44.30
2018-09-29T19:00:10.877Z,44.50
2018-09-29T19:02:42.910Z,44.60
2018-09-29T19:05:13.288Z,44.40
2018-09-29T19:07:43.637Z,44.60
2018-09-29T19:10:14.025Z,44.80
2018-09-29T19:12:44.385Z,44.90
2018-09-29T19:15:14.997Z,44.90
2018-09-29T19:17:45.361Z,44.90
2018-09-29T19:20:16.050Z,45.10
2018-09-29T19:22:46.665Z,45.00
2018-09-29T19:25:17.056Z,45.20
2018-09-29T19:27:47.405Z,45.30
2018-09-29T19:30:18.069Z,45.40
2018-09-29T19:32:48.639Z,45.50
2018-09-29T19:35:19.014Z,45.70
2018-09-29T19:37:49.410Z,46.00
2018-09-29T19:40:19.820Z,45.80
2018-09-29T19:42:50.216Z,45.80
2018-09-29T19:45:20.836Z,45.90
2018-09-29T19:47:51.637Z,45.90
2018-09-29T19:50:22.053Z,46.00
2018-09-29T19:52:52.480Z,46.00
2018-09-29T19:55:23.060Z,46.30
2018-09-29T19:57:53.472Z,46.40
2018-09-29T20:00:23.796Z,46.40
2018-09-29T20:02:54.228Z,46.40
2018-09-29T20:05:24.565Z,46.60
2018-09-29T20:07:54.940Z,46.70
2018-09-29T20:10:25.530Z,46.70
2018-09-29T20:12:56.385Z,46.80
2018-09-29T20:15:26.742Z,46.80
2018-09-29T20:17:57.341Z,47.00
2018-09-29T20:20:27.665Z,46.90
2018-09-29T20:22:58.281Z,47.10
2018-09-29T20:25:28.862Z,47.20
2018-09-29T20:28:00.005Z,47.00
2018-09-29T20:30:30.610Z,47.30
2018-09-29T20:33:01.181Z,47.40
2018-09-29T20:35:31.556Z,47.50
2018-09-29T20:38:02.290Z,47.70
2018-09-29T20:40:32.856Z,47.50
2018-09-29T20:43:03.208Z,47.60
2018-09-29T20:45:33.528Z,47.80
2018-09-29T20:48:03.963Z,47.70
2018-09-29T20:50:34.290Z,47.70
2018-09-29T20:53:05.421Z,47.80
2018-09-29T20:55:36.351Z,47.80
2018-09-29T20:58:08.031Z,48.00
2018-09-29T21:00:38.702Z,47.80
2018-09-29T21:03:09.714Z,47.80
2018-09-29T21:05:40.543Z,48.30
2018-09-29T21:08:11.494Z,48.30
2018-09-29T21:10:42.483Z,48.20
2018-09-29T21:13:13.173Z,48.30
2018-09-29T21:15:44.106Z,48.40
2018-09-29T21:18:14.697Z,48.40
2018-09-29T21:20:45.423Z,48.50
2018-09-29T21:23:17.186Z,48.40
2018-09-29T21:25:48.067Z,48.20
2018-09-29T21:28:18.945Z,48.50
2018-09-29T21:30:49.897Z,48.50
2018-09-29T21:33:20.766Z,48.60
2018-09-29T21:35:51.755Z,48.70
2018-09-29T21:38:22.753Z,48.80
2018-09-29T21:40:53.368Z,48.70
2018-09-29T21:43:24.083Z,48.90
2018-09-29T21:45:54.704Z,48.80
2018-09-29T21:48:25.407Z,48.90
2018-09-29T21:50:56.100Z,48.90
2018-09-29T21:53:27.006Z,49.00
2018-09-29T21:55:57.696Z,49.30
2018-09-29T21:58:28.492Z,49.20
2018-09-29T22:01:04.264Z,49.20
2018-09-29T22:03:34.904Z,49.50
2018-09-29T22:06:06.318Z,49.70
2018-09-29T22:08:37.012Z,49.60
2018-09-29T22:11:08.085Z,49.60
2018-09-29T22:13:38.827Z,49.60
2018-09-29T22:16:09.642Z,49.50
2018-09-29T22:18:40.305Z,49.70
2018-09-29T22:21:11.018Z,49.80
2018-09-29T22:23:41.775Z,49.80
2018-09-29T22:26:12.365Z,49.90
2018-09-29T22:28:43.898Z,50.00
2018-09-29T22:31:14.222Z,50.20
2018-09-29T22:33:44.604Z,50.20
2018-09-29T22:36:14.947Z,50.20
2018-09-29T22:38:45.317Z,50.30
2018-09-29T22:41:15.872Z,50.20
2018-09-29T22:43:46.205Z,50.20
2018-09-29T22:46:16.524Z,50.40
2018-09-29T22:48:46.891Z,50.20
2018-09-29T22:51:17.878Z,50.40
2018-09-29T22:53:48.187Z,50.30
2018-09-29T22:56:18.541Z,50.30
2018-09-29T22:58:49.108Z,50.30
2018-09-29T23:01:19.497Z,50.30
2018-09-29T23:03:50.056Z,50.40
2018-09-29T23:06:20.405Z,50.60
2018-09-29T23:08:50.989Z,50.70
2018-09-29T23:11:21.584Z,50.70
2018-09-29T23:13:52.141Z,50.70
2018-09-29T23:16:22.482Z,50.70
2018-09-29T23:18:52.853Z,50.80
2018-09-29T23:21:23.384Z,50.90
2018-09-29T23:23:53.712Z,51.00
2018-09-29T23:26:24.072Z,51.00
2018-09-29T23:28:54.636Z,51.00
2018-09-29T23:31:25.220Z,51.00
2018-09-29T23:33:55.524Z,51.20
2018-09-29T23:36:26.130Z,51.10
2018-09-29T23:38:56.456Z,51.10
2018-09-29T23:41:26.789Z,51.20
2018-09-29T23:43:57.114Z,51.20
2018-09-29T23:46:27.699Z,51.20
2018-09-29T23:48:58.021Z,51.20
2018-09-29T23:51:28.359Z,51.10
2018-09-29T23:53:58.713Z,51.30
2018-09-29T23:56:29.332Z,51.40
2018-09-29T23:58:59.892Z,51.50
